Time;durP1;ratioP1;P1;durP2;ratioP2;P2;SDS_P1;SDS_P2;PMS_P1;PMS_P2;Temp;Humidity;BMP_temperature;BMP_pressure;BME280_temperature;BME280_humidity;BME280_pressure;Samples;Min_cycle;Max_cycle;Signal;HPM_P1;HPM_P2
2023/04/28 05:00:27;;;;;;;;;1.00;1.00;;;;;;;;5965208;22;46235;-59
2023/04/28 05:02:52;;;;;;;;;4.00;1.00;;;;;;;;5024370;28;45389;-59
2023/04/28 05:05:17;;;;;;;;;1.00;1.00;;;;;;;;5021096;28;45451;-59
2023/04/28 05:07:42;;;;;;;;;0.00;0.00;;;;;;;;5028523;28;46239;-60
2023/04/28 05:10:10;;;;;;;;;0.33;0.33;;;;;;;;5020005;28;45371;-59
2023/04/28 05:12:35;;;;;;;;;0.00;0.00;;;;;;;;5023624;28;45558;-59
2023/04/28 05:15:00;;;;;;;;;1.00;1.00;;;;;;;;5021220;28;45333;-59
2023/04/28 05:17:25;;;;;;;;;3.00;2.00;;;;;;;;5019732;28;46617;-60
2023/04/28 05:19:50;;;;;;;;;2.00;2.00;;;;;;;;5020206;28;45354;-59
2023/04/28 05:22:16;;;;;;;;;0.67;0.67;;;;;;;;5020315;28;46015;-59
2023/04/28 05:24:41;;;;;;;;;0.67;0.67;;;;;;;;5020261;28;45805;-59
2023/04/28 05:27:06;;;;;;;;;0.00;0.00;;;;;;;;5018904;28;47229;-59
2023/04/28 05:29:31;;;;;;;;;1.00;1.00;;;;;;;;5020752;28;45331;-59
2023/04/28 05:31:56;;;;;;;;;1.33;1.33;;;;;;;;5029133;28;45571;-59
2023/04/28 05:34:22;;;;;;;;;1.00;1.00;;;;;;;;5018488;28;45694;-59
2023/04/28 05:36:47;;;;;;;;;1.00;1.00;;;;;;;;5020346;28;45645;-59
2023/04/28 05:39:12;;;;;;;;;1.33;1.33;;;;;;;;5019428;28;45468;-59
2023/04/28 05:41:38;;;;;;;;;1.00;1.00;;;;;;;;5021254;28;45370;-59
2023/04/28 05:44:03;;;;;;;;;1.00;1.00;;;;;;;;5026681;28;45398;-61
2023/04/28 05:46:28;;;;;;;;;0.33;0.33;;;;;;;;5022767;28;46329;-60
2023/04/28 05:48:53;;;;;;;;;0.00;0.00;;;;;;;;5035246;28;45238;-60
2023/04/28 05:51:18;;;;;;;;;0.00;0.00;;;;;;;;5030778;28;45509;-59
2023/04/28 05:53:47;;;;;;;;;1.00;1.00;;;;;;;;5026216;28;45269;-59
2023/04/28 05:56:13;;;;;;;;;1.00;1.00;;;;;;;;5029560;28;48008;-59
2023/04/28 05:58:38;;;;;;;;;0.00;0.00;;;;;;;;5033787;28;45360;-59
2023/04/28 06:01:03;;;;;;;;;1.00;1.00;;;;;;;;5027933;28;45312;-60
2023/04/28 06:03:28;;;;;;;;;0.00;0.00;;;;;;;;5027720;28;45590;-59
2023/04/28 06:05:53;;;;;;;;;1.00;0.67;;;;;;;;5031809;28;47066;-60
2023/04/28 06:08:19;;;;;;;;;3.00;1.00;;;;;;;;5033693;28;45342;-59
2023/04/28 06:10:44;;;;;;;;;0.67;0.67;;;;;;;;5033350;28;45301;-60
2023/04/28 06:13:10;;;;;;;;;0.00;0.00;;;;;;;;5027665;28;45446;-65
2023/04/28 06:15:35;;;;;;;;;0.00;0.00;;;;;;;;5019006;28;46111;-65
2023/04/28 06:18:00;;;;;;;;;1.00;1.00;;;;;;;;5017885;28;45363;-65
2023/04/28 06:20:25;;;;;;;;;1.00;1.00;;;;;;;;5019077;28;45327;-65
2023/04/28 06:22:50;;;;;;;;;0.00;0.00;;;;;;;;5019322;28;45425;-65
2023/04/28 06:25:16;;;;;;;;;0.00;0.00;;;;;;;;5017814;28;45593;-65
2023/04/28 06:27:41;;;;;;;;;3.00;1.33;;;;;;;;5019362;28;45380;-65
2023/04/28 06:30:06;;;;;;;;;1.00;1.00;;;;;;;;5018398;28;45339;-65
2023/04/28 06:32:32;;;;;;;;;1.00;1.00;;;;;;;;5012479;28;45606;-65
2023/04/28 06:34:57;;;;;;;;;0.00;0.00;;;;;;;;5018148;28;45314;-65
2023/04/28 06:37:22;;;;;;;;;0.00;0.00;;;;;;;;5018163;28;45511;-65
2023/04/28 06:39:48;;;;;;;;;2.67;2.00;;;;;;;;5018717;28;45293;-65
2023/04/28 06:42:17;;;;;;;;;1.67;0.67;;;;;;;;5019449;28;45445;-66
2023/04/28 06:44:42;;;;;;;;;1.33;1.33;;;;;;;;5021262;28;45448;-65
2023/04/28 06:47:07;;;;;;;;;1.33;1.33;;;;;;;;5010517;28;45435;-65
2023/04/28 06:49:32;;;;;;;;;0.67;0.67;;;;;;;;5016874;28;45500;-65
2023/04/28 06:51:58;;;;;;;;;1.67;1.67;;;;;;;;5018327;28;45336;-66
2023/04/28 06:54:23;;;;;;;;;1.00;1.00;;;;;;;;5018467;28;46337;-65
2023/04/28 06:56:48;;;;;;;;;2.00;1.00;;;;;;;;5017521;28;45493;-66
2023/04/28 06:59:13;;;;;;;;;1.67;1.00;;;;;;;;5015551;28;45408;-65
2023/04/28 07:01:39;;;;;;;;;0.00;0.00;;;;;;;;5018441;28;45495;-65
2023/04/28 07:04:04;;;;;;;;;2.00;2.00;;;;;;;;5016740;28;46355;-65
2023/04/28 07:06:31;;;;;;;;;2.00;1.00;;;;;;;;5018321;28;45490;-65
2023/04/28 07:08:56;;;;;;;;;1.00;0.67;;;;;;;;5018198;28;45842;-66
2023/04/28 07:11:22;;;;;;;;;2.33;1.33;;;;;;;;5018136;28;45350;-66
2023/04/28 07:13:49;;;;;;;;;1.33;1.00;;;;;;;;5016448;28;46216;-65
2023/04/28 07:16:14;;;;;;;;;2.00;2.00;;;;;;;;5016290;28;45398;-65
2023/04/28 07:18:40;;;;;;;;;2.00;2.00;;;;;;;;5018171;28;45318;-65
2023/04/28 07:21:05;;;;;;;;;2.00;2.00;;;;;;;;5016074;28;45424;-66
2023/04/28 07:23:30;;;;;;;;;1.00;1.00;;;;;;;;5017468;28;46026;-64
2023/04/28 07:25:56;;;;;;;;;3.00;2.00;;;;;;;;5017128;28;45312;-65
2023/04/28 07:28:21;;;;;;;;;2.33;2.33;;;;;;;;5018565;28;45613;-65
2023/04/28 07:30:46;;;;;;;;;1.33;1.33;;;;;;;;5021777;28;45221;-65
2023/04/28 07:33:11;;;;;;;;;3.00;3.00;;;;;;;;5019099;28;46962;-65
2023/04/28 07:35:36;;;;;;;;;5.00;2.00;;;;;;;;5021943;28;45271;-67
2023/04/28 07:38:02;;;;;;;;;1.00;1.00;;;;;;;;5016077;28;45821;-67
2023/04/28 07:40:28;;;;;;;;;1.00;1.00;;;;;;;;5013468;28;45407;-70
2023/04/28 07:42:53;;;;;;;;;1.00;1.00;;;;;;;;5016295;28;48289;-68
2023/04/28 07:45:18;;;;;;;;;1.00;1.00;;;;;;;;5021974;28;45579;-68
2023/04/28 07:47:43;;;;;;;;;2.00;2.00;;;;;;;;5020874;28;45417;-67
2023/04/28 07:50:10;;;;;;;;;1.33;1.33;;;;;;;;5025122;28;45389;-68
2023/04/28 07:52:35;;;;;;;;;3.00;1.00;;;;;;;;5023729;28;46056;-67
2023/04/28 07:55:02;;;;;;;;;1.33;1.33;;;;;;;;5023942;28;45451;-67
2023/04/28 07:57:28;;;;;;;;;1.33;1.33;;;;;;;;5037500;28;45328;-67
2023/04/28 07:59:53;;;;;;;;;1.00;1.00;;;;;;;;5031034;28;45556;-67
2023/04/28 08:02:19;;;;;;;;;1.00;1.00;;;;;;;;5034602;28;45368;-67
2023/04/28 08:04:44;;;;;;;;;1.00;1.00;;;;;;;;5011247;28;45435;-68
2023/04/28 08:07:09;;;;;;;;;0.67;0.67;;;;;;;;5029729;28;45812;-67
2023/04/28 08:09:35;;;;;;;;;1.00;1.00;;;;;;;;5027763;28;45436;-67
2023/04/28 08:12:00;;;;;;;;;2.00;2.00;;;;;;;;5027605;28;47247;-67
2023/04/28 08:14:26;;;;;;;;;2.67;1.00;;;;;;;;5025531;28;45320;-67
2023/04/28 08:16:51;;;;;;;;;1.00;1.00;;;;;;;;5029498;28;45284;-67
2023/04/28 08:19:16;;;;;;;;;1.67;1.67;;;;;;;;5025371;28;45181;-68
2023/04/28 08:21:41;;;;;;;;;2.00;2.00;;;;;;;;5029022;28;45422;-68
2023/04/28 08:24:09;;;;;;;;;4.00;2.00;;;;;;;;5023331;28;46152;-67
2023/04/28 08:26:34;;;;;;;;;1.00;1.00;;;;;;;;5026051;28;45296;-67
2023/04/28 08:28:59;;;;;;;;;2.00;2.00;;;;;;;;5020883;28;45435;-68
2023/04/28 08:31:25;;;;;;;;;3.00;2.00;;;;;;;;5020805;28;45337;-68
2023/04/28 08:33:50;;;;;;;;;2.67;1.00;;;;;;;;5024010;28;45702;-68
2023/04/28 08:36:16;;;;;;;;;2.33;2.00;;;;;;;;5023135;28;45414;-67
2023/04/28 08:38:42;;;;;;;;;1.00;1.00;;;;;;;;5024815;28;45688;-67
2023/04/28 08:41:07;;;;;;;;;4.00;0.25;;;;;;;;5023436;28;45426;-67
2023/04/28 08:43:34;;;;;;;;;2.00;2.00;;;;;;;;5024672;28;45336;-69
2023/04/28 08:46:02;;;;;;;;;1.00;1.00;;;;;;;;5012855;28;45793;-68
2023/04/28 08:48:30;;;;;;;;;0.25;0.25;;;;;;;;5020111;28;45379;-68
2023/04/28 08:50:56;;;;;;;;;2.00;1.00;;;;;;;;5020201;28;45715;-69
2023/04/28 08:53:24;;;;;;;;;0.50;0.50;;;;;;;;5010141;28;45388;-68
2023/04/28 08:55:50;;;;;;;;;1.00;1.00;;;;;;;;5019070;28;45455;-68
2023/04/28 08:58:15;;;;;;;;;1.00;0.75;;;;;;;;5016254;28;46265;-68
2023/04/28 09:00:41;;;;;;;;;1.50;1.00;;;;;;;;5001543;28;46189;-68
2023/04/28 09:03:07;;;;;;;;;2.00;0.50;;;;;;;;5010677;28;45376;-69
2023/04/28 09:05:32;;;;;;;;;1.00;1.00;;;;;;;;5020318;28;45477;-68
2023/04/28 09:08:00;;;;;;;;;1.00;1.00;;;;;;;;5017805;28;45578;-69
2023/04/28 09:10:26;;;;;;;;;1.67;1.67;;;;;;;;5012012;28;45672;-68
2023/04/28 09:12:52;;;;;;;;;1.25;1.25;;;;;;;;5015337;28;45647;-68
2023/04/28 09:15:31;;;;;;;;;3.00;1.25;;;;;;;;5012083;28;45478;-68
2023/04/28 09:17:56;;;;;;;;;0.00;0.00;;;;;;;;5015155;28;45343;-68
2023/04/28 09:20:23;;;;;;;;;0.25;0.25;;;;;;;;5009342;28;45618;-68
2023/04/28 09:22:49;;;;;;;;;3.00;1.00;;;;;;;;5017076;28;45461;-68
2023/04/28 09:25:15;;;;;;;;;1.25;1.00;;;;;;;;5017956;28;45486;-68
2023/04/28 09:27:40;;;;;;;;;2.75;1.00;;;;;;;;5016995;28;45351;-68
2023/04/28 09:30:06;;;;;;;;;1.25;1.25;;;;;;;;5016762;28;45485;-68
2023/04/28 09:32:31;;;;;;;;;4.00;2.25;;;;;;;;5014988;28;45883;-68
2023/04/28 09:34:57;;;;;;;;;2.00;2.00;;;;;;;;5016358;28;45709;-68
2023/04/28 09:37:23;;;;;;;;;2.00;2.00;;;;;;;;5017272;28;45548;-66
2023/04/28 09:39:50;;;;;;;;;3.50;3.00;;;;;;;;5018102;28;46598;-66
2023/04/28 09:42:33;;;;;;;;;1.33;1.33;;;;;;;;5016622;28;45336;-67
2023/04/28 09:44:59;;;;;;;;;1.00;1.00;;;;;;;;5014641;28;45632;-67
2023/04/28 09:47:24;;;;;;;;;2.00;2.00;;;;;;;;5029757;28;45664;-67
2023/04/28 09:49:56;;;;;;;;;1.00;1.00;;;;;;;;5017958;28;46125;-67
2023/04/28 09:52:23;;;;;;;;;3.33;2.00;;;;;;;;5008623;28;45684;-66
2023/04/28 09:54:49;;;;;;;;;2.00;2.00;;;;;;;;5012402;28;45289;-67
2023/04/28 09:57:15;;;;;;;;;1.00;1.00;;;;;;;;4958779;28;45474;-67
2023/04/28 09:59:45;;;;;;;;;2.00;1.67;;;;;;;;4942202;28;47857;-67
2023/04/28 10:02:12;;;;;;;;;3.33;2.00;;;;;;;;4952739;28;46050;-67
2023/04/28 10:04:38;;;;;;;;;1.00;1.00;;;;;;;;4943366;28;46037;-68
2023/04/28 10:07:03;;;;;;;;;2.00;2.00;;;;;;;;4941134;28;45546;-67
2023/04/28 10:09:29;;;;;;;;;2.00;1.50;;;;;;;;4947321;28;46211;-65
2023/04/28 10:11:54;;;;;;;;;3.00;2.00;;;;;;;;4941447;28;46051;-66
2023/04/28 10:14:20;;;;;;;;;1.67;1.67;;;;;;;;4942810;28;45630;-67
2023/04/28 10:16:46;;;;;;;;;1.33;0.33;;;;;;;;4938995;28;45602;-67
2023/04/28 10:19:12;;;;;;;;;2.33;1.00;;;;;;;;4943278;28;45943;-66
2023/04/28 10:21:43;;;;;;;;;4.00;2.33;;;;;;;;4944386;28;45382;-67
2023/04/28 10:24:22;;;;;;;;;5.00;4.00;;;;;;;;4943902;28;45610;-66
2023/04/28 10:27:02;;;;;;;;;5.00;4.00;;;;;;;;4936119;28;45506;-67
2023/04/28 10:29:29;;;;;;;;;2.67;2.67;;;;;;;;4942252;28;46874;-66
2023/04/28 10:32:13;;;;;;;;;2.00;2.00;;;;;;;;4939256;28;45488;-64
2023/04/28 10:34:38;;;;;;;;;4.00;2.33;;;;;;;;4939214;28;45953;-63
2023/04/28 10:37:04;;;;;;;;;2.00;2.00;;;;;;;;4943406;28;45945;-65
2023/04/28 10:39:29;;;;;;;;;2.00;0.33;;;;;;;;4941940;28;46131;-65
2023/04/28 10:41:54;;;;;;;;;1.50;1.00;;;;;;;;4941619;28;47157;-65
2023/04/28 10:44:29;;;;;;;;;2.00;2.00;;;;;;;;4941420;28;47022;-61
2023/04/28 10:47:05;;;;;;;;;1.50;1.00;;;;;;;;4942294;28;46713;-64
2023/04/28 10:49:49;;;;;;;;;2.50;2.50;;;;;;;;4940387;28;46208;-63
2023/04/28 10:52:37;;;;;;;;;2.00;2.00;;;;;;;;4942676;28;45723;-63
2023/04/28 10:55:21;;;;;;;;;1.25;1.25;;;;;;;;4940473;28;45462;-64
2023/04/28 10:57:46;;;;;;;;;2.00;2.00;;;;;;;;4943159;28;45510;-64
2023/04/28 11:00:30;;;;;;;;;0.00;0.00;;;;;;;;4939655;28;45328;-64
2023/04/28 11:02:55;;;;;;;;;1.00;1.00;;;;;;;;4943324;28;45411;-64
2023/04/28 11:05:21;;;;;;;;;0.00;0.00;;;;;;;;4945422;28;45349;-64
2023/04/28 11:08:09;;;;;;;;;0.50;0.00;;;;;;;;4944251;28;45726;-64
2023/04/28 11:10:53;;;;;;;;;0.00;0.00;;;;;;;;4938521;28;47475;-64
2023/04/28 11:13:26;;;;;;;;;4.25;2.75;;;;;;;;4947508;28;45551;-64
2023/04/28 11:16:04;;;;;;;;;2.00;2.00;;;;;;;;4946366;28;45551;-64
2023/04/28 11:18:37;;;;;;;;;1.00;1.00;;;;;;;;4947639;28;45909;-64
2023/04/28 11:21:02;;;;;;;;;0.25;0.00;;;;;;;;5006487;28;46421;-64
2023/04/28 11:23:28;;;;;;;;;0.25;0.25;;;;;;;;4968922;28;45800;-64
2023/04/28 11:25:54;;;;;;;;;2.25;2.25;;;;;;;;4961111;28;45898;-64
2023/04/28 11:28:20;;;;;;;;;0.50;0.50;;;;;;;;4962830;28;45539;-64
2023/04/28 11:30:45;;;;;;;;;0.25;0.25;;;;;;;;4950433;28;47115;-64
2023/04/28 11:33:10;;;;;;;;;0.00;0.00;;;;;;;;4953901;28;45927;-63
2023/04/28 11:35:42;;;;;;;;;0.25;0.00;;;;;;;;4955391;28;46247;-64
2023/04/28 11:38:07;;;;;;;;;0.00;0.00;;;;;;;;4955179;28;45439;-64
2023/04/28 11:40:32;;;;;;;;;0.00;0.00;;;;;;;;4951171;28;46478;-65
2023/04/28 11:42:58;;;;;;;;;0.25;0.00;;;;;;;;4961180;28;46314;-65
2023/04/28 11:45:26;;;;;;;;;0.00;0.00;;;;;;;;4945151;28;45844;-66
2023/04/28 11:47:51;;;;;;;;;0.25;0.25;;;;;;;;4962145;28;46625;-64
2023/04/28 11:50:16;;;;;;;;;0.00;0.00;;;;;;;;4957968;28;45807;-65
2023/04/28 11:52:50;;;;;;;;;1.25;0.75;;;;;;;;4957854;28;45932;-64
2023/04/28 11:55:16;;;;;;;;;1.00;0.25;;;;;;;;4957521;28;45645;-64
2023/04/28 11:57:41;;;;;;;;;0.50;0.50;;;;;;;;4960617;28;46065;-66
2023/04/28 12:00:13;;;;;;;;;0.00;0.00;;;;;;;;4945050;28;47851;-66
2023/04/28 12:02:39;;;;;;;;;2.00;1.00;;;;;;;;4945329;28;45667;-63
2023/04/28 12:05:04;;;;;;;;;1.25;0.00;;;;;;;;4947632;28;45974;-65
2023/04/28 12:07:41;;;;;;;;;1.50;1.50;;;;;;;;4948878;28;46516;-65
2023/04/28 12:10:10;;;;;;;;;0.75;0.75;;;;;;;;4951160;28;46599;-63
2023/04/28 12:12:36;;;;;;;;;1.00;1.00;;;;;;;;4950140;28;46151;-63
2023/04/28 12:15:05;;;;;;;;;0.75;0.75;;;;;;;;4950178;28;45748;-66
2023/04/28 12:17:32;;;;;;;;;0.00;0.00;;;;;;;;4946895;28;45770;-66
2023/04/28 12:19:58;;;;;;;;;0.00;0.00;;;;;;;;4946203;28;46245;-64
2023/04/28 12:22:23;;;;;;;;;2.00;0.00;;;;;;;;4945355;28;46030;-64
2023/04/28 12:25:08;;;;;;;;;0.50;0.00;;;;;;;;4949937;28;46131;-64
2023/04/28 12:27:35;;;;;;;;;0.00;0.00;;;;;;;;4949888;28;45828;-65
2023/04/28 12:30:00;;;;;;;;;0.00;0.00;;;;;;;;4950004;28;46604;-66
2023/04/28 12:32:39;;;;;;;;;0.25;0.00;;;;;;;;4950754;28;45421;-65
2023/04/28 12:35:04;;;;;;;;;0.50;0.50;;;;;;;;4945347;28;45535;-65
2023/04/28 12:37:30;;;;;;;;;0.00;0.00;;;;;;;;4949751;28;45562;-65
2023/04/28 12:39:55;;;;;;;;;0.75;0.00;;;;;;;;4943681;28;47094;-65
2023/04/28 12:42:22;;;;;;;;;0.00;0.00;;;;;;;;4945984;28;45502;-64
2023/04/28 12:44:49;;;;;;;;;0.50;0.50;;;;;;;;4949100;28;46008;-64
2023/04/28 12:47:15;;;;;;;;;1.00;0.00;;;;;;;;4948701;28;46872;-65
2023/04/28 12:49:40;;;;;;;;;0.00;0.00;;;;;;;;4942968;28;46868;-66
2023/04/28 12:52:06;;;;;;;;;1.00;0.00;;;;;;;;4947027;28;45960;-66
2023/04/28 12:54:31;;;;;;;;;0.00;0.00;;;;;;;;4944969;28;46211;-65
2023/04/28 12:56:57;;;;;;;;;0.50;0.00;;;;;;;;4945878;28;46606;-65
2023/04/28 12:59:23;;;;;;;;;1.25;0.00;;;;;;;;4949605;28;46486;-64
2023/04/28 13:01:49;;;;;;;;;0.00;0.00;;;;;;;;4947752;28;46763;-64
2023/04/28 13:04:15;;;;;;;;;0.00;0.00;;;;;;;;4945962;28;45668;-64
2023/04/28 13:06:42;;;;;;;;;0.50;0.00;;;;;;;;4949070;28;45890;-64
2023/04/28 13:09:08;;;;;;;;;0.00;0.00;;;;;;;;4942736;28;47530;-64
2023/04/28 13:11:34;;;;;;;;;0.00;0.00;;;;;;;;4947609;28;46626;-64
2023/04/28 13:13:59;;;;;;;;;0.00;0.00;;;;;;;;4949654;28;46046;-63
2023/04/28 13:16:27;;;;;;;;;0.00;0.00;;;;;;;;4945725;28;46088;-64
2023/04/28 13:18:53;;;;;;;;;0.00;0.00;;;;;;;;4944761;28;46921;-65
2023/04/28 13:21:18;;;;;;;;;0.00;0.00;;;;;;;;4944850;28;45660;-65
2023/04/28 13:23:43;;;;;;;;;0.00;0.00;;;;;;;;4945421;28;45542;-63
2023/04/28 13:26:08;;;;;;;;;0.00;0.00;;;;;;;;4938928;28;45545;-63
2023/04/28 13:28:34;;;;;;;;;0.00;0.00;;;;;;;;4941684;28;48359;-63
2023/04/28 13:30:59;;;;;;;;;0.00;0.00;;;;;;;;4944266;28;45691;-64
2023/04/28 13:33:29;;;;;;;;;0.00;0.00;;;;;;;;4949885;28;45431;-64
2023/04/28 13:35:55;;;;;;;;;0.00;0.00;;;;;;;;4951848;28;45496;-64
2023/04/28 13:38:21;;;;;;;;;0.00;0.00;;;;;;;;4943548;28;46217;-64
2023/04/28 13:40:46;;;;;;;;;0.00;0.00;;;;;;;;4944189;28;45441;-62
2023/04/28 13:43:12;;;;;;;;;0.25;0.25;;;;;;;;4954681;28;46298;-61
2023/04/28 13:45:37;;;;;;;;;0.00;0.00;;;;;;;;4945042;28;46455;-64
2023/04/28 13:48:02;;;;;;;;;1.00;1.00;;;;;;;;4945885;28;46308;-64
2023/04/28 13:50:28;;;;;;;;;0.00;0.00;;;;;;;;4948858;28;45551;-64
2023/04/28 13:52:53;;;;;;;;;0.00;0.00;;;;;;;;4957927;28;46028;-64
2023/04/28 13:55:26;;;;;;;;;0.00;0.00;;;;;;;;4931495;28;45778;-64
2023/04/28 13:57:51;;;;;;;;;0.00;0.00;;;;;;;;4960385;28;46910;-64
2023/04/28 14:00:19;;;;;;;;;0.00;0.00;;;;;;;;4951276;28;46600;-62
2023/04/28 14:02:45;;;;;;;;;0.00;0.00;;;;;;;;4954170;28;45506;-62
2023/04/28 14:05:11;;;;;;;;;0.00;0.00;;;;;;;;4952614;28;46361;-62
2023/04/28 14:07:36;;;;;;;;;0.00;0.00;;;;;;;;4949746;28;47404;-62
2023/04/28 14:10:05;;;;;;;;;0.00;0.00;;;;;;;;4949012;28;46623;-62
2023/04/28 14:12:30;;;;;;;;;0.00;0.00;;;;;;;;4948426;28;45804;-62
2023/04/28 14:14:57;;;;;;;;;0.00;0.00;;;;;;;;4948921;28;46026;-62
2023/04/28 14:17:22;;;;;;;;;1.50;1.50;;;;;;;;4945981;28;46235;-62
2023/04/28 14:19:48;;;;;;;;;0.00;0.00;;;;;;;;4951903;28;46802;-62
2023/04/28 14:22:13;;;;;;;;;0.00;0.00;;;;;;;;4947907;28;45968;-62
2023/04/28 14:24:41;;;;;;;;;0.75;0.00;;;;;;;;4942784;28;45756;-62
2023/04/28 14:27:06;;;;;;;;;0.00;0.00;;;;;;;;4949145;28;46919;-64
2023/04/28 14:29:31;;;;;;;;;0.00;0.00;;;;;;;;4952519;28;45904;-62
2023/04/28 14:31:57;;;;;;;;;0.00;0.00;;;;;;;;4993189;28;45692;-63
2023/04/28 14:34:23;;;;;;;;;0.00;0.00;;;;;;;;4970524;28;46545;-63
2023/04/28 14:36:48;;;;;;;;;0.25;0.00;;;;;;;;4974381;28;46508;-63
2023/04/28 14:39:13;;;;;;;;;0.00;0.00;;;;;;;;5000758;28;45451;-63
2023/04/28 14:41:39;;;;;;;;;0.00;0.00;;;;;;;;5020932;28;45829;-63
2023/04/28 14:44:05;;;;;;;;;2.75;0.25;;;;;;;;5024036;28;45373;-63
2023/04/28 14:46:30;;;;;;;;;0.00;0.00;;;;;;;;5019564;28;46273;-63
2023/04/28 14:48:57;;;;;;;;;0.00;0.00;;;;;;;;5026407;28;45430;-63
2023/04/28 14:51:22;;;;;;;;;0.25;0.25;;;;;;;;5021055;28;45755;-63
2023/04/28 14:53:48;;;;;;;;;0.00;0.00;;;;;;;;5024568;28;45509;-63
2023/04/28 14:56:13;;;;;;;;;2.00;0.50;;;;;;;;5020008;28;46266;-63
2023/04/28 14:58:38;;;;;;;;;2.00;0.00;;;;;;;;5024813;28;45853;-63
2023/04/28 15:01:03;;;;;;;;;0.75;0.75;;;;;;;;5020237;28;45745;-63
2023/04/28 15:03:28;;;;;;;;;1.00;1.00;;;;;;;;5021043;28;45606;-63
2023/04/28 15:05:54;;;;;;;;;0.00;0.00;;;;;;;;5020987;28;46245;-63
2023/04/28 15:08:19;;;;;;;;;0.00;0.00;;;;;;;;5026333;28;45435;-63
2023/04/28 15:10:44;;;;;;;;;0.00;0.00;;;;;;;;5021719;28;45347;-64
2023/04/28 15:13:09;;;;;;;;;0.00;0.00;;;;;;;;5024442;28;45347;-63
2023/04/28 15:15:35;;;;;;;;;0.00;0.00;;;;;;;;5017211;28;47788;-63
2023/04/28 15:18:03;;;;;;;;;0.00;0.00;;;;;;;;5018520;28;45642;-63
2023/04/28 15:20:29;;;;;;;;;0.00;0.00;;;;;;;;5018698;28;45252;-64
2023/04/28 15:22:54;;;;;;;;;0.00;0.00;;;;;;;;5018445;28;45603;-63
2023/04/28 15:25:19;;;;;;;;;1.25;0.00;;;;;;;;5023770;28;46215;-63
2023/04/28 15:27:45;;;;;;;;;1.00;1.00;;;;;;;;5018331;28;45391;-63
2023/04/28 15:30:10;;;;;;;;;0.50;0.50;;;;;;;;5014528;28;45337;-63
2023/04/28 15:32:35;;;;;;;;;1.00;1.00;;;;;;;;5005733;28;45609;-63
2023/04/28 15:35:01;;;;;;;;;0.00;0.00;;;;;;;;5012726;28;45358;-63
2023/04/28 15:37:36;;;;;;;;;0.75;0.75;;;;;;;;5017226;28;45273;-63
2023/04/28 15:40:01;;;;;;;;;1.00;1.00;;;;;;;;5028371;28;45317;-63
2023/04/28 15:42:27;;;;;;;;;0.00;0.00;;;;;;;;5011335;28;45167;-63
2023/04/28 15:44:53;;;;;;;;;0.00;0.00;;;;;;;;5017017;28;46356;-63
2023/04/28 15:47:18;;;;;;;;;0.00;0.00;;;;;;;;5011526;28;45363;-63
2023/04/28 15:49:43;;;;;;;;;1.00;1.00;;;;;;;;5014373;28;45334;-63
2023/04/28 15:52:09;;;;;;;;;0.50;0.00;;;;;;;;5018660;28;45352;-64
2023/04/28 15:54:34;;;;;;;;;0.00;0.00;;;;;;;;5020971;28;45450;-63
2023/04/28 15:57:00;;;;;;;;;0.00;0.00;;;;;;;;5019814;28;45722;-63
2023/04/28 15:59:25;;;;;;;;;0.00;0.00;;;;;;;;5019822;28;45453;-63
2023/04/28 16:01:50;;;;;;;;;0.00;0.00;;;;;;;;5020285;28;45492;-63
2023/04/28 16:04:16;;;;;;;;;0.00;0.00;;;;;;;;5015212;28;46554;-63
2023/04/28 16:06:41;;;;;;;;;2.50;0.00;;;;;;;;5018162;28;45364;-63
2023/04/28 16:09:07;;;;;;;;;0.50;0.00;;;;;;;;5013617;28;45530;-63
2023/04/28 16:11:32;;;;;;;;;0.00;0.00;;;;;;;;5021026;28;45372;-63
2023/04/28 16:13:57;;;;;;;;;2.50;0.00;;;;;;;;5020692;28;46612;-63
2023/04/28 16:16:23;;;;;;;;;0.25;0.00;;;;;;;;5011355;28;45377;-63
2023/04/28 16:18:49;;;;;;;;;1.25;0.00;;;;;;;;5006700;28;45388;-63
2023/04/28 16:21:16;;;;;;;;;0.00;0.00;;;;;;;;5031821;28;45462;-63
2023/04/28 16:23:41;;;;;;;;;0.00;0.00;;;;;;;;5005900;28;46297;-63
2023/04/28 16:26:06;;;;;;;;;1.00;1.00;;;;;;;;5016104;28;45319;-64
2023/04/28 16:28:31;;;;;;;;;0.00;0.00;;;;;;;;5020701;28;45534;-63
2023/04/28 16:30:57;;;;;;;;;0.00;0.00;;;;;;;;5019886;28;45515;-63
2023/04/28 16:33:22;;;;;;;;;0.00;0.00;;;;;;;;5011089;28;46560;-63
2023/04/28 16:35:54;;;;;;;;;1.00;0.00;;;;;;;;5017402;28;45295;-63
2023/04/28 16:38:20;;;;;;;;;1.00;0.00;;;;;;;;5018511;28;46077;-63
2023/04/28 16:40:45;;;;;;;;;0.00;0.00;;;;;;;;5019781;28;45363;-63
2023/04/28 16:43:10;;;;;;;;;0.00;0.00;;;;;;;;5027861;28;47200;-63
2023/04/28 16:45:35;;;;;;;;;0.25;0.25;;;;;;;;5020226;28;45316;-63
2023/04/28 16:48:00;;;;;;;;;0.00;0.00;;;;;;;;5019711;28;45411;-63
2023/04/28 16:50:26;;;;;;;;;1.00;0.00;;;;;;;;5021238;28;45364;-63
2023/04/28 16:52:51;;;;;;;;;0.00;0.00;;;;;;;;5019185;28;45919;-63
2023/04/28 16:55:17;;;;;;;;;1.00;1.00;;;;;;;;5018710;28;45438;-63
2023/04/28 16:57:42;;;;;;;;;0.00;0.00;;;;;;;;5017889;28;45427;-63
2023/04/28 17:00:08;;;;;;;;;0.00;0.00;;;;;;;;5017192;28;45209;-63
2023/04/28 17:02:33;;;;;;;;;0.00;0.00;;;;;;;;5017833;28;46167;-63
2023/04/28 17:04:58;;;;;;;;;0.00;0.00;;;;;;;;5019221;28;45616;-63
2023/04/28 17:07:24;;;;;;;;;1.00;1.00;;;;;;;;5018848;28;46021;-63
2023/04/28 17:09:49;;;;;;;;;1.00;1.00;;;;;;;;5019999;28;45525;-63
2023/04/28 17:12:15;;;;;;;;;0.25;0.25;;;;;;;;5018843;28;47045;-63
2023/04/28 17:14:40;;;;;;;;;3.75;2.00;;;;;;;;5019255;28;45361;-63
2023/04/28 17:17:06;;;;;;;;;1.00;1.00;;;;;;;;5017664;28;46928;-63
2023/04/28 17:19:34;;;;;;;;;1.50;1.00;;;;;;;;5019808;28;45436;-64
2023/04/28 17:21:59;;;;;;;;;1.00;1.00;;;;;;;;5019012;28;45232;-63
2023/04/28 17:24:25;;;;;;;;;0.00;0.00;;;;;;;;5019555;28;45245;-58
2023/04/28 17:26:50;;;;;;;;;3.00;1.00;;;;;;;;5015608;28;45303;-66
2023/04/28 17:29:16;;;;;;;;;0.50;0.25;;;;;;;;5021244;28;45447;-65
2023/04/28 17:31:41;;;;;;;;;2.00;2.00;;;;;;;;5024275;28;46180;-66
2023/04/28 17:34:07;;;;;;;;;2.00;2.00;;;;;;;;5023296;28;45207;-67
2023/04/28 17:36:32;;;;;;;;;2.75;1.00;;;;;;;;5018815;28;45251;-68
2023/04/28 17:38:57;;;;;;;;;1.00;1.00;;;;;;;;5022075;28;45407;-68
2023/04/28 17:41:23;;;;;;;;;1.00;1.00;;;;;;;;5022576;28;46144;-68
2023/04/28 17:43:50;;;;;;;;;3.00;1.75;;;;;;;;5017921;28;45682;-68
2023/04/28 17:46:15;;;;;;;;;1.00;1.00;;;;;;;;5023024;28;45610;-67
2023/04/28 17:48:44;;;;;;;;;3.00;1.75;;;;;;;;5023264;28;45324;-68
2023/04/28 17:51:09;;;;;;;;;1.50;1.50;;;;;;;;5022945;28;45422;-68
2023/04/28 17:53:35;;;;;;;;;4.00;3.00;;;;;;;;5040860;28;45563;-67
2023/04/28 17:56:01;;;;;;;;;2.33;2.00;;;;;;;;5024106;28;45308;-67
2023/04/28 17:58:26;;;;;;;;;1.67;1.67;;;;;;;;5017833;28;45494;-68
2023/04/28 18:01:01;;;;;;;;;3.00;2.00;;;;;;;;5022705;28;46349;-67
2023/04/28 18:03:27;;;;;;;;;2.00;2.00;;;;;;;;5033185;28;45421;-67
2023/04/28 18:05:52;;;;;;;;;2.33;1.00;;;;;;;;5020570;28;45379;-67
2023/04/28 18:08:17;;;;;;;;;2.00;1.33;;;;;;;;5020322;28;45595;-67
2023/04/28 18:10:42;;;;;;;;;2.00;2.00;;;;;;;;5018787;28;46892;-67
2023/04/28 18:13:08;;;;;;;;;2.25;1.50;;;;;;;;5015317;28;45543;-67
2023/04/28 18:15:33;;;;;;;;;2.00;2.00;;;;;;;;5020242;28;45434;-67
2023/04/28 18:17:59;;;;;;;;;1.00;1.00;;;;;;;;5020679;28;45665;-67
2023/04/28 18:20:24;;;;;;;;;1.00;1.00;;;;;;;;5026595;28;46765;-67
2023/04/28 18:22:49;;;;;;;;;2.00;2.00;;;;;;;;5018262;28;45482;-66
2023/04/28 18:25:15;;;;;;;;;3.00;3.00;;;;;;;;5012968;28;45356;-67
2023/04/28 18:27:41;;;;;;;;;2.00;2.00;;;;;;;;5019092;28;45605;-68
2023/04/28 18:30:06;;;;;;;;;3.33;3.33;;;;;;;;5017056;28;45430;-69
2023/04/28 18:32:32;;;;;;;;;2.00;2.00;;;;;;;;5019670;28;45356;-69
2023/04/28 18:34:58;;;;;;;;;3.00;3.00;;;;;;;;5018609;28;45410;-69
2023/04/28 18:37:23;;;;;;;;;1.75;1.75;;;;;;;;5017653;28;45332;-69
2023/04/28 18:39:48;;;;;;;;;2.00;2.00;;;;;;;;5026371;28;46500;-68
2023/04/28 18:42:13;;;;;;;;;2.00;2.00;;;;;;;;5033692;28;45269;-68
2023/04/28 18:44:40;;;;;;;;;3.00;1.33;;;;;;;;5018973;28;45291;-69
2023/04/28 18:47:05;;;;;;;;;2.67;2.67;;;;;;;;5018238;28;45449;-69
2023/04/28 18:49:31;;;;;;;;;2.33;2.33;;;;;;;;5019050;28;45550;-70
2023/04/28 18:52:00;;;;;;;;;2.33;2.33;;;;;;;;5012545;28;45813;-68
2023/04/28 18:54:25;;;;;;;;;3.00;3.00;;;;;;;;5008724;28;45332;-70
2023/04/28 18:56:51;;;;;;;;;4.00;4.00;;;;;;;;5018609;28;45527;-69
2023/04/28 18:59:16;;;;;;;;;7.00;7.00;;;;;;;;5017037;28;45388;-68
2023/04/28 19:01:41;;;;;;;;;7.67;7.67;;;;;;;;5011480;28;45383;-71
2023/04/28 19:04:07;;;;;;;;;6.33;6.00;;;;;;;;5016759;28;45504;-70
2023/04/28 19:06:32;;;;;;;;;9.00;9.00;;;;;;;;5006894;28;45495;-68
2023/04/28 19:08:57;;;;;;;;;9.00;9.00;;;;;;;;5017322;28;46287;-68
2023/04/28 19:11:23;;;;;;;;;11.67;9.00;;;;;;;;5016241;28;45325;-71
2023/04/28 19:13:48;;;;;;;;;10.00;9.33;;;;;;;;5016816;28;45736;-60
2023/04/28 19:16:13;;;;;;;;;9.33;9.33;;;;;;;;5013445;28;45476;-69
2023/04/28 19:18:40;;;;;;;;;10.33;10.33;;;;;;;;5017381;28;45541;-73
2023/04/28 19:21:06;;;;;;;;;11.33;10.00;;;;;;;;5017665;28;45240;-71
2023/04/28 19:23:31;;;;;;;;;12.00;9.00;;;;;;;;5014418;28;46217;-71
2023/04/28 19:25:57;;;;;;;;;11.00;10.00;;;;;;;;5020442;28;45363;-70
2023/04/28 19:28:24;;;;;;;;;12.33;11.00;;;;;;;;5017532;28;45289;-68
2023/04/28 19:30:50;;;;;;;;;11.00;9.33;;;;;;;;5018524;28;45454;-68
2023/04/28 19:33:15;;;;;;;;;8.67;8.67;;;;;;;;5018144;28;45324;-65
2023/04/28 19:35:40;;;;;;;;;9.00;9.00;;;;;;;;5021606;28;45590;-69
2023/04/28 19:38:06;;;;;;;;;8.00;8.00;;;;;;;;5020982;28;45459;-70